sensor_id;sensor_type;location;lat;lon;timestamp;P1;durP1;ratioP1;P2;durP2;ratioP2
75512;SDS011;64090;49.770;18.760;2024-02-04T00:02:11;3.00;;;2.40;;
75512;SDS011;64090;49.770;18.760;2024-02-04T00:08:21;3.10;;;2.50;;
75512;SDS011;64090;49.770;18.760;2024-02-04T00:11:23;3.40;;;2.80;;
75512;SDS011;64090;49.770;18.760;2024-02-04T00:14:26;2.80;;;2.50;;
75512;SDS011;64090;49.770;18.760;2024-02-04T00:17:29;2.70;;;1.60;;
75512;SDS011;64090;49.770;18.760;2024-02-04T00:20:35;2.90;;;2.10;;
75512;SDS011;64090;49.770;18.760;2024-02-04T00:23:38;2.70;;;1.90;;
75512;SDS011;64090;49.770;18.760;2024-02-04T00:26:41;2.70;;;2.50;;
75512;SDS011;64090;49.770;18.760;2024-02-04T00:29:44;2.80;;;2.00;;
75512;SDS011;64090;49.770;18.760;2024-02-04T00:32:47;3.60;;;2.90;;
75512;SDS011;64090;49.770;18.760;2024-02-04T00:35:50;2.90;;;2.20;;
75512;SDS011;64090;49.770;18.760;2024-02-04T00:38:53;3.40;;;2.20;;
75512;SDS011;64090;49.770;18.760;2024-02-04T00:41:56;3.00;;;2.60;;
75512;SDS011;64090;49.770;18.760;2024-02-04T00:44:58;3.10;;;2.50;;
75512;SDS011;64090;49.770;18.760;2024-02-04T00:48:01;2.90;;;1.90;;
75512;SDS011;64090;49.770;18.760;2024-02-04T00:51:05;2.40;;;1.50;;
75512;SDS011;64090;49.770;18.760;2024-02-04T00:54:08;1.20;;;1.00;;
75512;SDS011;64090;49.770;18.760;2024-02-04T00:57:10;2.50;;;1.90;;
75512;SDS011;64090;49.770;18.760;2024-02-04T01:00:13;3.10;;;2.20;;
75512;SDS011;64090;49.770;18.760;2024-02-04T01:03:17;2.40;;;2.20;;
75512;SDS011;64090;49.770;18.760;2024-02-04T01:06:20;2.80;;;2.30;;
75512;SDS011;64090;49.770;18.760;2024-02-04T01:09:23;2.70;;;2.10;;
75512;SDS011;64090;49.770;18.760;2024-02-04T01:12:26;3.20;;;2.50;;
75512;SDS011;64090;49.770;18.760;2024-02-04T01:15:29;2.90;;;2.60;;
75512;SDS011;64090;49.770;18.760;2024-02-04T01:18:32;2.60;;;2.20;;
75512;SDS011;64090;49.770;18.760;2024-02-04T01:21:35;3.20;;;2.90;;
75512;SDS011;64090;49.770;18.760;2024-02-04T01:24:39;3.30;;;3.00;;
75512;SDS011;64090;49.770;18.760;2024-02-04T01:27:42;3.20;;;2.30;;
75512;SDS011;64090;49.770;18.760;2024-02-04T01:30:44;3.90;;;3.20;;
75512;SDS011;64090;49.770;18.760;2024-02-04T01:33:47;5.10;;;2.70;;
75512;SDS011;64090;49.770;18.760;2024-02-04T01:36:50;4.10;;;3.70;;
75512;SDS011;64090;49.770;18.760;2024-02-04T01:39:53;3.90;;;3.50;;
75512;SDS011;64090;49.770;18.760;2024-02-04T01:42:56;4.20;;;2.40;;
75512;SDS011;64090;49.770;18.760;2024-02-04T01:45:59;3.30;;;3.00;;
75512;SDS011;64090;49.770;18.760;2024-02-04T01:49:05;2.90;;;2.40;;
75512;SDS011;64090;49.770;18.760;2024-02-04T01:52:09;3.00;;;2.40;;
75512;SDS011;64090;49.770;18.760;2024-02-04T01:55:13;3.40;;;2.40;;
75512;SDS011;64090;49.770;18.760;2024-02-04T01:58:16;2.50;;;1.60;;
75512;SDS011;64090;49.770;18.760;2024-02-04T02:01:20;3.00;;;2.30;;
75512;SDS011;64090;49.770;18.760;2024-02-04T02:04:24;3.50;;;2.70;;
75512;SDS011;64090;49.770;18.760;2024-02-04T02:07:28;3.30;;;2.90;;
75512;SDS011;64090;49.770;18.760;2024-02-04T02:10:31;2.70;;;2.00;;
75512;SDS011;64090;49.770;18.760;2024-02-04T02:13:34;2.60;;;1.80;;
75512;SDS011;64090;49.770;18.760;2024-02-04T02:16:39;3.10;;;2.80;;
75512;SDS011;64090;49.770;18.760;2024-02-04T02:26:25;1.60;;;1.20;;
75512;SDS011;64090;49.770;18.760;2024-02-04T02:29:28;2.50;;;2.10;;
75512;SDS011;64090;49.770;18.760;2024-02-04T02:32:31;3.20;;;2.80;;
75512;SDS011;64090;49.770;18.760;2024-02-04T02:35:34;2.30;;;2.10;;
75512;SDS011;64090;49.770;18.760;2024-02-04T02:38:44;2.40;;;1.60;;
75512;SDS011;64090;49.770;18.760;2024-02-04T02:41:55;1.50;;;0.90;;
75512;SDS011;64090;49.770;18.760;2024-02-04T02:45:01;2.20;;;1.90;;
75512;SDS011;64090;49.770;18.760;2024-02-04T02:48:05;2.40;;;2.00;;
75512;SDS011;64090;49.770;18.760;2024-02-04T02:51:11;2.10;;;1.40;;
75512;SDS011;64090;49.770;18.760;2024-02-04T02:54:14;2.70;;;1.40;;
75512;SDS011;64090;49.770;18.760;2024-02-04T02:57:17;2.20;;;1.70;;
75512;SDS011;64090;49.770;18.760;2024-02-04T03:00:23;2.20;;;1.60;;
75512;SDS011;64090;49.770;18.760;2024-02-04T03:03:48;2.40;;;1.90;;
75512;SDS011;64090;49.770;18.760;2024-02-04T03:06:52;1.90;;;1.30;;
75512;SDS011;64090;49.770;18.760;2024-02-04T03:09:55;2.50;;;2.20;;
75512;SDS011;64090;49.770;18.760;2024-02-04T03:12:58;2.50;;;1.70;;
75512;SDS011;64090;49.770;18.760;2024-02-04T03:16:00;3.10;;;1.90;;
75512;SDS011;64090;49.770;18.760;2024-02-04T03:19:04;3.30;;;3.00;;
75512;SDS011;64090;49.770;18.760;2024-02-04T03:22:08;2.50;;;1.90;;
75512;SDS011;64090;49.770;18.760;2024-02-04T03:25:11;3.00;;;2.50;;
75512;SDS011;64090;49.770;18.760;2024-02-04T03:28:14;3.90;;;3.20;;
75512;SDS011;64090;49.770;18.760;2024-02-04T03:31:23;3.00;;;2.50;;
75512;SDS011;64090;49.770;18.760;2024-02-04T03:34:26;3.50;;;3.20;;
75512;SDS011;64090;49.770;18.760;2024-02-04T03:37:29;4.90;;;3.80;;
75512;SDS011;64090;49.770;18.760;2024-02-04T03:40:32;4.60;;;4.20;;
75512;SDS011;64090;49.770;18.760;2024-02-04T03:43:38;4.20;;;3.50;;
75512;SDS011;64090;49.770;18.760;2024-02-04T03:46:41;4.30;;;3.30;;
75512;SDS011;64090;49.770;18.760;2024-02-04T03:49:44;3.50;;;2.80;;
75512;SDS011;64090;49.770;18.760;2024-02-04T03:52:47;3.60;;;3.30;;
75512;SDS011;64090;49.770;18.760;2024-02-04T03:55:49;3.80;;;2.70;;
75512;SDS011;64090;49.770;18.760;2024-02-04T03:58:52;6.20;;;4.30;;
75512;SDS011;64090;49.770;18.760;2024-02-04T04:01:55;3.80;;;3.50;;
75512;SDS011;64090;49.770;18.760;2024-02-04T04:05:00;2.90;;;2.60;;
75512;SDS011;64090;49.770;18.760;2024-02-04T04:08:03;4.60;;;4.00;;
75512;SDS011;64090;49.770;18.760;2024-02-04T04:11:09;3.40;;;2.90;;
75512;SDS011;64090;49.770;18.760;2024-02-04T04:14:13;3.70;;;3.40;;
75512;SDS011;64090;49.770;18.760;2024-02-04T04:21:21;3.10;;;2.60;;
75512;SDS011;64090;49.770;18.760;2024-02-04T04:24:24;3.10;;;2.70;;
75512;SDS011;64090;49.770;18.760;2024-02-04T04:27:27;4.10;;;3.70;;
75512;SDS011;64090;49.770;18.760;2024-02-04T04:30:30;5.80;;;5.30;;
75512;SDS011;64090;49.770;18.760;2024-02-04T04:33:33;4.30;;;3.80;;
75512;SDS011;64090;49.770;18.760;2024-02-04T04:36:36;3.00;;;2.50;;
75512;SDS011;64090;49.770;18.760;2024-02-04T04:39:39;3.40;;;2.30;;
75512;SDS011;64090;49.770;18.760;2024-02-04T04:42:42;3.80;;;3.10;;
75512;SDS011;64090;49.770;18.760;2024-02-04T04:45:45;4.10;;;2.70;;
75512;SDS011;64090;49.770;18.760;2024-02-04T04:48:48;3.60;;;2.70;;
75512;SDS011;64090;49.770;18.760;2024-02-04T04:51:51;3.20;;;2.70;;
75512;SDS011;64090;49.770;18.760;2024-02-04T04:54:54;3.00;;;2.60;;
75512;SDS011;64090;49.770;18.760;2024-02-04T04:57:58;2.80;;;2.30;;
75512;SDS011;64090;49.770;18.760;2024-02-04T05:01:01;2.10;;;1.80;;
75512;SDS011;64090;49.770;18.760;2024-02-04T05:04:04;2.30;;;2.00;;
75512;SDS011;64090;49.770;18.760;2024-02-04T05:07:08;2.60;;;2.10;;
75512;SDS011;64090;49.770;18.760;2024-02-04T05:10:11;3.10;;;2.80;;
75512;SDS011;64090;49.770;18.760;2024-02-04T05:13:14;3.10;;;2.10;;
75512;SDS011;64090;49.770;18.760;2024-02-04T05:16:17;3.00;;;2.20;;
75512;SDS011;64090;49.770;18.760;2024-02-04T05:19:20;2.50;;;2.00;;
75512;SDS011;64090;49.770;18.760;2024-02-04T05:22:23;3.80;;;2.40;;
75512;SDS011;64090;49.770;18.760;2024-02-04T05:25:26;3.10;;;2.40;;
75512;SDS011;64090;49.770;18.760;2024-02-04T05:28:29;3.40;;;3.10;;
75512;SDS011;64090;49.770;18.760;2024-02-04T05:31:32;3.70;;;3.30;;
75512;SDS011;64090;49.770;18.760;2024-02-04T05:34:36;3.00;;;2.70;;
75512;SDS011;64090;49.770;18.760;2024-02-04T05:37:40;3.00;;;2.50;;
75512;SDS011;64090;49.770;18.760;2024-02-04T05:40:43;3.80;;;2.80;;
75512;SDS011;64090;49.770;18.760;2024-02-04T05:43:45;2.70;;;1.80;;
75512;SDS011;64090;49.770;18.760;2024-02-04T05:46:48;3.40;;;2.30;;
75512;SDS011;64090;49.770;18.760;2024-02-04T05:49:51;2.50;;;1.90;;
75512;SDS011;64090;49.770;18.760;2024-02-04T05:52:54;3.20;;;2.90;;
75512;SDS011;64090;49.770;18.760;2024-02-04T05:55:57;3.50;;;2.80;;
75512;SDS011;64090;49.770;18.760;2024-02-04T05:59:00;3.00;;;2.60;;
75512;SDS011;64090;49.770;18.760;2024-02-04T06:02:03;3.80;;;2.20;;
75512;SDS011;64090;49.770;18.760;2024-02-04T06:05:06;2.00;;;1.60;;
75512;SDS011;64090;49.770;18.760;2024-02-04T06:08:09;1.90;;;1.20;;
75512;SDS011;64090;49.770;18.760;2024-02-04T06:11:13;1.60;;;1.20;;
75512;SDS011;64090;49.770;18.760;2024-02-04T06:14:16;1.60;;;1.30;;
75512;SDS011;64090;49.770;18.760;2024-02-04T06:21:16;2.20;;;1.30;;
75512;SDS011;64090;49.770;18.760;2024-02-04T06:24:18;2.00;;;1.80;;
75512;SDS011;64090;49.770;18.760;2024-02-04T06:27:22;2.50;;;2.00;;
75512;SDS011;64090;49.770;18.760;2024-02-04T06:30:25;2.80;;;1.80;;
75512;SDS011;64090;49.770;18.760;2024-02-04T06:33:28;2.40;;;1.90;;
75512;SDS011;64090;49.770;18.760;2024-02-04T06:36:31;3.10;;;1.70;;
75512;SDS011;64090;49.770;18.760;2024-02-04T06:39:34;3.50;;;2.10;;
75512;SDS011;64090;49.770;18.760;2024-02-04T06:42:37;3.60;;;2.70;;
75512;SDS011;64090;49.770;18.760;2024-02-04T06:45:40;3.20;;;2.50;;
75512;SDS011;64090;49.770;18.760;2024-02-04T06:48:43;2.50;;;1.80;;
75512;SDS011;64090;49.770;18.760;2024-02-04T06:51:46;2.50;;;1.90;;
75512;SDS011;64090;49.770;18.760;2024-02-04T06:54:50;3.80;;;2.70;;
75512;SDS011;64090;49.770;18.760;2024-02-04T06:57:53;3.30;;;2.30;;
75512;SDS011;64090;49.770;18.760;2024-02-04T07:00:56;2.90;;;2.30;;
75512;SDS011;64090;49.770;18.760;2024-02-04T07:03:59;2.40;;;2.20;;
75512;SDS011;64090;49.770;18.760;2024-02-04T07:07:02;3.10;;;2.60;;
75512;SDS011;64090;49.770;18.760;2024-02-04T07:10:06;2.30;;;1.70;;
75512;SDS011;64090;49.770;18.760;2024-02-04T07:13:10;3.00;;;2.20;;
75512;SDS011;64090;49.770;18.760;2024-02-04T07:16:14;4.00;;;3.00;;
75512;SDS011;64090;49.770;18.760;2024-02-04T07:19:17;4.20;;;2.30;;
75512;SDS011;64090;49.770;18.760;2024-02-04T07:22:20;3.00;;;2.30;;
75512;SDS011;64090;49.770;18.760;2024-02-04T07:25:23;1.80;;;1.60;;
75512;SDS011;64090;49.770;18.760;2024-02-04T07:28:26;7.10;;;4.50;;
75512;SDS011;64090;49.770;18.760;2024-02-04T07:31:29;5.90;;;5.00;;
75512;SDS011;64090;49.770;18.760;2024-02-04T07:34:32;4.90;;;3.50;;
75512;SDS011;64090;49.770;18.760;2024-02-04T07:37:35;31.30;;;12.00;;
75512;SDS011;64090;49.770;18.760;2024-02-04T07:40:38;14.00;;;7.80;;
75512;SDS011;64090;49.770;18.760;2024-02-04T07:43:41;9.30;;;5.80;;
75512;SDS011;64090;49.770;18.760;2024-02-04T07:46:46;25.30;;;11.50;;
75512;SDS011;64090;49.770;18.760;2024-02-04T07:49:49;13.80;;;6.80;;
75512;SDS011;64090;49.770;18.760;2024-02-04T07:52:52;27.30;;;11.40;;
75512;SDS011;64090;49.770;18.760;2024-02-04T07:55:55;11.80;;;6.50;;
75512;SDS011;64090;49.770;18.760;2024-02-04T07:58:58;10.80;;;6.00;;
75512;SDS011;64090;49.770;18.760;2024-02-04T08:02:01;16.70;;;9.20;;
75512;SDS011;64090;49.770;18.760;2024-02-04T08:05:04;11.60;;;8.10;;
75512;SDS011;64090;49.770;18.760;2024-02-04T08:08:08;9.30;;;5.80;;
75512;SDS011;64090;49.770;18.760;2024-02-04T08:11:15;10.20;;;7.10;;
75512;SDS011;64090;49.770;18.760;2024-02-04T08:14:19;14.50;;;8.80;;
75512;SDS011;64090;49.770;18.760;2024-02-04T08:17:22;9.70;;;6.30;;
75512;SDS011;64090;49.770;18.760;2024-02-04T08:20:25;8.40;;;5.90;;
75512;SDS011;64090;49.770;18.760;2024-02-04T08:23:28;10.50;;;7.60;;
75512;SDS011;64090;49.770;18.760;2024-02-04T08:26:31;10.60;;;8.10;;
75512;SDS011;64090;49.770;18.760;2024-02-04T08:29:34;12.50;;;7.60;;
75512;SDS011;64090;49.770;18.760;2024-02-04T08:32:37;9.10;;;7.70;;
75512;SDS011;64090;49.770;18.760;2024-02-04T08:35:40;8.90;;;6.30;;
75512;SDS011;64090;49.770;18.760;2024-02-04T08:38:43;11.00;;;8.00;;
75512;SDS011;64090;49.770;18.760;2024-02-04T08:41:46;8.30;;;5.80;;
75512;SDS011;64090;49.770;18.760;2024-02-04T08:44:49;9.90;;;7.00;;
75512;SDS011;64090;49.770;18.760;2024-02-04T08:47:52;9.20;;;7.70;;
75512;SDS011;64090;49.770;18.760;2024-02-04T08:50:55;8.60;;;7.00;;
75512;SDS011;64090;49.770;18.760;2024-02-04T08:53:58;12.30;;;10.60;;
75512;SDS011;64090;49.770;18.760;2024-02-04T08:57:01;9.00;;;6.60;;
75512;SDS011;64090;49.770;18.760;2024-02-04T09:00:04;7.90;;;7.00;;
75512;SDS011;64090;49.770;18.760;2024-02-04T09:03:07;6.20;;;4.60;;
75512;SDS011;64090;49.770;18.760;2024-02-04T09:06:10;7.00;;;5.40;;
75512;SDS011;64090;49.770;18.760;2024-02-04T09:09:13;14.10;;;9.10;;
75512;SDS011;64090;49.770;18.760;2024-02-04T09:12:16;6.40;;;5.20;;
75512;SDS011;64090;49.770;18.760;2024-02-04T09:15:18;6.50;;;4.90;;
75512;SDS011;64090;49.770;18.760;2024-02-04T09:18:21;4.20;;;3.40;;
75512;SDS011;64090;49.770;18.760;2024-02-04T09:21:25;4.90;;;3.70;;
75512;SDS011;64090;49.770;18.760;2024-02-04T09:24:28;4.50;;;3.00;;
75512;SDS011;64090;49.770;18.760;2024-02-04T09:27:32;3.80;;;2.90;;
75512;SDS011;64090;49.770;18.760;2024-02-04T09:30:35;3.90;;;2.80;;
75512;SDS011;64090;49.770;18.760;2024-02-04T09:33:38;3.30;;;2.60;;
75512;SDS011;64090;49.770;18.760;2024-02-04T09:36:43;2.10;;;1.60;;
75512;SDS011;64090;49.770;18.760;2024-02-04T09:39:46;3.90;;;2.50;;
75512;SDS011;64090;49.770;18.760;2024-02-04T09:42:49;2.40;;;1.50;;
75512;SDS011;64090;49.770;18.760;2024-02-04T09:45:54;2.10;;;1.20;;
75512;SDS011;64090;49.770;18.760;2024-02-04T09:48:57;2.80;;;1.50;;
75512;SDS011;64090;49.770;18.760;2024-02-04T09:52:04;1.80;;;0.90;;
75512;SDS011;64090;49.770;18.760;2024-02-04T09:55:10;3.40;;;2.70;;
75512;SDS011;64090;49.770;18.760;2024-02-04T09:58:15;2.60;;;1.40;;
75512;SDS011;64090;49.770;18.760;2024-02-04T10:01:18;2.10;;;1.00;;
75512;SDS011;64090;49.770;18.760;2024-02-04T10:04:22;1.20;;;0.60;;
75512;SDS011;64090;49.770;18.760;2024-02-04T10:07:25;3.90;;;1.90;;
75512;SDS011;64090;49.770;18.760;2024-02-04T10:10:29;2.80;;;1.30;;
75512;SDS011;64090;49.770;18.760;2024-02-04T10:13:45;2.80;;;1.50;;
75512;SDS011;64090;49.770;18.760;2024-02-04T10:16:49;5.20;;;2.70;;
75512;SDS011;64090;49.770;18.760;2024-02-04T10:19:52;8.30;;;5.50;;
75512;SDS011;64090;49.770;18.760;2024-02-04T10:22:55;6.20;;;4.30;;
75512;SDS011;64090;49.770;18.760;2024-02-04T10:25:59;6.60;;;5.10;;
75512;SDS011;64090;49.770;18.760;2024-02-04T10:29:06;2.30;;;1.50;;
75512;SDS011;64090;49.770;18.760;2024-02-04T10:32:09;3.70;;;2.70;;
75512;SDS011;64090;49.770;18.760;2024-02-04T10:35:12;2.80;;;2.10;;
75512;SDS011;64090;49.770;18.760;2024-02-04T10:38:15;3.60;;;2.50;;
75512;SDS011;64090;49.770;18.760;2024-02-04T10:41:18;3.40;;;2.40;;
75512;SDS011;64090;49.770;18.760;2024-02-04T10:44:23;4.60;;;2.60;;
75512;SDS011;64090;49.770;18.760;2024-02-04T10:47:30;5.40;;;2.70;;
75512;SDS011;64090;49.770;18.760;2024-02-04T10:50:36;1.80;;;1.10;;
75512;SDS011;64090;49.770;18.760;2024-02-04T10:53:41;2.00;;;1.50;;
75512;SDS011;64090;49.770;18.760;2024-02-04T10:56:46;1.50;;;1.10;;
75512;SDS011;64090;49.770;18.760;2024-02-04T10:59:59;3.10;;;1.80;;
75512;SDS011;64090;49.770;18.760;2024-02-04T11:03:03;2.20;;;1.50;;
75512;SDS011;64090;49.770;18.760;2024-02-04T11:06:07;1.90;;;1.00;;
75512;SDS011;64090;49.770;18.760;2024-02-04T11:09:14;1.20;;;0.80;;
75512;SDS011;64090;49.770;18.760;2024-02-04T11:12:19;1.80;;;1.20;;
75512;SDS011;64090;49.770;18.760;2024-02-04T11:25:53;3.70;;;3.00;;
75512;SDS011;64090;49.770;18.760;2024-02-04T11:29:01;4.10;;;2.60;;
75512;SDS011;64090;49.770;18.760;2024-02-04T11:32:05;16.60;;;10.20;;
75512;SDS011;64090;49.770;18.760;2024-02-04T11:35:09;4.20;;;2.90;;
75512;SDS011;64090;49.770;18.760;2024-02-04T11:38:17;2.90;;;2.00;;
75512;SDS011;64090;49.770;18.760;2024-02-04T11:41:24;4.30;;;2.70;;
75512;SDS011;64090;49.770;18.760;2024-02-04T11:44:28;4.20;;;3.00;;
75512;SDS011;64090;49.770;18.760;2024-02-04T11:47:33;3.50;;;1.80;;
75512;SDS011;64090;49.770;18.760;2024-02-04T11:50:37;3.70;;;2.50;;
75512;SDS011;64090;49.770;18.760;2024-02-04T11:53:41;3.10;;;2.10;;
75512;SDS011;64090;49.770;18.760;2024-02-04T11:56:44;2.30;;;1.50;;
75512;SDS011;64090;49.770;18.760;2024-02-04T11:59:47;2.40;;;1.70;;
75512;SDS011;64090;49.770;18.760;2024-02-04T12:03:03;2.50;;;1.30;;
75512;SDS011;64090;49.770;18.760;2024-02-04T12:06:09;3.00;;;1.90;;
75512;SDS011;64090;49.770;18.760;2024-02-04T12:09:18;2.40;;;1.30;;
75512;SDS011;64090;49.770;18.760;2024-02-04T12:12:22;2.40;;;1.70;;
75512;SDS011;64090;49.770;18.760;2024-02-04T12:15:25;1.90;;;1.20;;
75512;SDS011;64090;49.770;18.760;2024-02-04T12:18:29;2.40;;;1.40;;
75512;SDS011;64090;49.770;18.760;2024-02-04T12:21:32;2.90;;;1.50;;
75512;SDS011;64090;49.770;18.760;2024-02-04T12:24:36;1.90;;;1.40;;
75512;SDS011;64090;49.770;18.760;2024-02-04T12:27:39;1.30;;;0.80;;
75512;SDS011;64090;49.770;18.760;2024-02-04T12:30:51;1.90;;;1.30;;
75512;SDS011;64090;49.770;18.760;2024-02-04T12:33:57;2.00;;;1.60;;
75512;SDS011;64090;49.770;18.760;2024-02-04T12:37:04;2.40;;;1.80;;
75512;SDS011;64090;49.770;18.760;2024-02-04T12:40:07;4.20;;;3.00;;
75512;SDS011;64090;49.770;18.760;2024-02-04T12:43:11;4.30;;;2.20;;
75512;SDS011;64090;49.770;18.760;2024-02-04T12:46:14;7.00;;;3.80;;
75512;SDS011;64090;49.770;18.760;2024-02-04T12:49:20;5.80;;;3.20;;
75512;SDS011;64090;49.770;18.760;2024-02-04T12:52:27;8.80;;;5.10;;
75512;SDS011;64090;49.770;18.760;2024-02-04T12:55:30;5.60;;;3.00;;
75512;SDS011;64090;49.770;18.760;2024-02-04T12:58:41;14.30;;;7.30;;
75512;SDS011;64090;49.770;18.760;2024-02-04T13:01:44;14.40;;;7.80;;
75512;SDS011;64090;49.770;18.760;2024-02-04T13:04:47;15.20;;;8.10;;
75512;SDS011;64090;49.770;18.760;2024-02-04T13:08:00;44.00;;;22.50;;
75512;SDS011;64090;49.770;18.760;2024-02-04T13:11:07;39.40;;;22.20;;
75512;SDS011;64090;49.770;18.760;2024-02-04T13:14:10;34.70;;;17.70;;
75512;SDS011;64090;49.770;18.760;2024-02-04T13:17:13;11.40;;;6.40;;
75512;SDS011;64090;49.770;18.760;2024-02-04T13:20:16;29.10;;;16.40;;
75512;SDS011;64090;49.770;18.760;2024-02-04T13:23:19;51.30;;;27.40;;
75512;SDS011;64090;49.770;18.760;2024-02-04T13:26:22;31.40;;;19.20;;
75512;SDS011;64090;49.770;18.760;2024-02-04T13:29:25;9.70;;;6.80;;
75512;SDS011;64090;49.770;18.760;2024-02-04T13:32:28;10.80;;;8.60;;
75512;SDS011;64090;49.770;18.760;2024-02-04T13:35:31;7.40;;;6.70;;
75512;SDS011;64090;49.770;18.760;2024-02-04T13:38:35;6.10;;;4.90;;
75512;SDS011;64090;49.770;18.760;2024-02-04T13:41:38;6.40;;;5.80;;
75512;SDS011;64090;49.770;18.760;2024-02-04T13:44:44;5.50;;;4.80;;
75512;SDS011;64090;49.770;18.760;2024-02-04T13:47:47;4.20;;;3.80;;
75512;SDS011;64090;49.770;18.760;2024-02-04T13:50:50;3.40;;;3.10;;
75512;SDS011;64090;49.770;18.760;2024-02-04T13:53:53;3.50;;;3.00;;
75512;SDS011;64090;49.770;18.760;2024-02-04T13:56:56;5.20;;;3.40;;
75512;SDS011;64090;49.770;18.760;2024-02-04T13:59:59;5.70;;;5.10;;
75512;SDS011;64090;49.770;18.760;2024-02-04T14:03:02;3.80;;;2.30;;
75512;SDS011;64090;49.770;18.760;2024-02-04T14:06:05;3.80;;;2.20;;
75512;SDS011;64090;49.770;18.760;2024-02-04T14:09:08;2.80;;;2.00;;
75512;SDS011;64090;49.770;18.760;2024-02-04T14:12:15;3.30;;;2.60;;
75512;SDS011;64090;49.770;18.760;2024-02-04T14:15:18;4.10;;;3.10;;
75512;SDS011;64090;49.770;18.760;2024-02-04T14:18:21;3.80;;;1.90;;
75512;SDS011;64090;49.770;18.760;2024-02-04T14:21:24;3.90;;;2.80;;
75512;SDS011;64090;49.770;18.760;2024-02-04T14:24:26;5.40;;;2.80;;
75512;SDS011;64090;49.770;18.760;2024-02-04T14:27:29;3.50;;;2.30;;
75512;SDS011;64090;49.770;18.760;2024-02-04T14:30:32;3.70;;;2.40;;
75512;SDS011;64090;49.770;18.760;2024-02-04T14:33:35;3.60;;;2.90;;
75512;SDS011;64090;49.770;18.760;2024-02-04T14:36:38;4.20;;;2.90;;
75512;SDS011;64090;49.770;18.760;2024-02-04T14:39:41;2.90;;;1.70;;
75512;SDS011;64090;49.770;18.760;2024-02-04T14:42:44;4.90;;;2.50;;
75512;SDS011;64090;49.770;18.760;2024-02-04T14:45:47;5.90;;;2.70;;
75512;SDS011;64090;49.770;18.760;2024-02-04T14:48:50;5.30;;;2.90;;
75512;SDS011;64090;49.770;18.760;2024-02-04T14:51:54;3.80;;;2.60;;
75512;SDS011;64090;49.770;18.760;2024-02-04T14:54:57;3.40;;;2.10;;
75512;SDS011;64090;49.770;18.760;2024-02-04T14:58:00;4.60;;;2.60;;
75512;SDS011;64090;49.770;18.760;2024-02-04T15:01:03;3.70;;;2.40;;
75512;SDS011;64090;49.770;18.760;2024-02-04T15:04:08;4.10;;;2.20;;
75512;SDS011;64090;49.770;18.760;2024-02-04T15:07:10;4.90;;;2.90;;
75512;SDS011;64090;49.770;18.760;2024-02-04T15:10:13;5.70;;;3.40;;
75512;SDS011;64090;49.770;18.760;2024-02-04T15:13:17;5.20;;;2.50;;
75512;SDS011;64090;49.770;18.760;2024-02-04T15:16:20;7.00;;;4.90;;
75512;SDS011;64090;49.770;18.760;2024-02-04T15:19:26;10.90;;;7.70;;
75512;SDS011;64090;49.770;18.760;2024-02-04T15:22:30;9.30;;;5.70;;
75512;SDS011;64090;49.770;18.760;2024-02-04T15:25:33;14.00;;;8.50;;
75512;SDS011;64090;49.770;18.760;2024-02-04T15:28:37;22.00;;;14.00;;
75512;SDS011;64090;49.770;18.760;2024-02-04T15:31:41;17.10;;;11.20;;
75512;SDS011;64090;49.770;18.760;2024-02-04T15:34:44;19.30;;;12.50;;
75512;SDS011;64090;49.770;18.760;2024-02-04T15:37:47;25.40;;;14.40;;
75512;SDS011;64090;49.770;18.760;2024-02-04T15:40:50;27.80;;;14.00;;
75512;SDS011;64090;49.770;18.760;2024-02-04T15:43:53;22.00;;;13.10;;
75512;SDS011;64090;49.770;18.760;2024-02-04T15:46:56;30.70;;;16.60;;
75512;SDS011;64090;49.770;18.760;2024-02-04T15:50:01;9.00;;;7.20;;
75512;SDS011;64090;49.770;18.760;2024-02-04T15:53:04;10.60;;;8.10;;
75512;SDS011;64090;49.770;18.760;2024-02-04T15:56:07;4.90;;;3.70;;
75512;SDS011;64090;49.770;18.760;2024-02-04T15:59:12;4.00;;;3.20;;
75512;SDS011;64090;49.770;18.760;2024-02-04T16:02:16;5.90;;;4.60;;
75512;SDS011;64090;49.770;18.760;2024-02-04T16:05:20;3.70;;;2.80;;
75512;SDS011;64090;49.770;18.760;2024-02-04T16:08:24;4.10;;;3.70;;
75512;SDS011;64090;49.770;18.760;2024-02-04T16:11:27;3.70;;;1.80;;
75512;SDS011;64090;49.770;18.760;2024-02-04T16:14:38;5.10;;;2.80;;
75512;SDS011;64090;49.770;18.760;2024-02-04T16:17:46;4.00;;;2.70;;
75512;SDS011;64090;49.770;18.760;2024-02-04T16:20:51;3.40;;;1.90;;
75512;SDS011;64090;49.770;18.760;2024-02-04T16:23:54;2.40;;;2.20;;
75512;SDS011;64090;49.770;18.760;2024-02-04T16:26:56;3.90;;;2.50;;
75512;SDS011;64090;49.770;18.760;2024-02-04T16:30:00;3.00;;;2.30;;
75512;SDS011;64090;49.770;18.760;2024-02-04T16:33:03;3.30;;;2.10;;
75512;SDS011;64090;49.770;18.760;2024-02-04T16:36:06;3.10;;;1.80;;
75512;SDS011;64090;49.770;18.760;2024-02-04T16:39:10;4.80;;;2.30;;
75512;SDS011;64090;49.770;18.760;2024-02-04T16:42:13;2.50;;;1.30;;
75512;SDS011;64090;49.770;18.760;2024-02-04T16:45:15;5.10;;;2.10;;
75512;SDS011;64090;49.770;18.760;2024-02-04T17:04:21;12.10;;;5.40;;
75512;SDS011;64090;49.770;18.760;2024-02-04T17:07:25;8.10;;;3.20;;
75512;SDS011;64090;49.770;18.760;2024-02-04T17:10:28;8.70;;;3.80;;
75512;SDS011;64090;49.770;18.760;2024-02-04T17:13:32;6.90;;;3.30;;
75512;SDS011;64090;49.770;18.760;2024-02-04T17:23:14;13.00;;;5.70;;
75512;SDS011;64090;49.770;18.760;2024-02-04T17:26:23;17.40;;;6.00;;
75512;SDS011;64090;49.770;18.760;2024-02-04T17:29:31;9.80;;;3.60;;
75512;SDS011;64090;49.770;18.760;2024-02-04T17:32:34;7.60;;;4.30;;
75512;SDS011;64090;49.770;18.760;2024-02-04T17:35:39;5.40;;;2.50;;
75512;SDS011;64090;49.770;18.760;2024-02-04T17:38:43;3.10;;;2.10;;
75512;SDS011;64090;49.770;18.760;2024-02-04T17:41:46;4.50;;;2.10;;
75512;SDS011;64090;49.770;18.760;2024-02-04T17:44:49;1.40;;;0.90;;
75512;SDS011;64090;49.770;18.760;2024-02-04T17:47:52;3.50;;;1.60;;
75512;SDS011;64090;49.770;18.760;2024-02-04T17:50:54;5.90;;;4.40;;
75512;SDS011;64090;49.770;18.760;2024-02-04T17:54:11;11.10;;;6.00;;
75512;SDS011;64090;49.770;18.760;2024-02-04T17:57:15;11.50;;;6.20;;
75512;SDS011;64090;49.770;18.760;2024-02-04T18:00:18;13.20;;;7.60;;
75512;SDS011;64090;49.770;18.760;2024-02-04T18:03:21;10.10;;;5.60;;
75512;SDS011;64090;49.770;18.760;2024-02-04T18:06:24;33.80;;;16.10;;
75512;SDS011;64090;49.770;18.760;2024-02-04T18:09:27;15.40;;;7.40;;
75512;SDS011;64090;49.770;18.760;2024-02-04T18:12:31;32.00;;;14.50;;
75512;SDS011;64090;49.770;18.760;2024-02-04T18:15:36;20.10;;;10.20;;
75512;SDS011;64090;49.770;18.760;2024-02-04T18:18:42;30.30;;;17.10;;
75512;SDS011;64090;49.770;18.760;2024-02-04T18:21:45;20.60;;;12.20;;
75512;SDS011;64090;49.770;18.760;2024-02-04T18:24:48;17.70;;;12.70;;
75512;SDS011;64090;49.770;18.760;2024-02-04T18:27:51;11.00;;;6.80;;
75512;SDS011;64090;49.770;18.760;2024-02-04T18:30:54;7.70;;;4.10;;
75512;SDS011;64090;49.770;18.760;2024-02-04T18:33:58;8.50;;;4.50;;
75512;SDS011;64090;49.770;18.760;2024-02-04T18:37:02;24.10;;;11.90;;
75512;SDS011;64090;49.770;18.760;2024-02-04T18:40:05;9.80;;;6.00;;
75512;SDS011;64090;49.770;18.760;2024-02-04T18:43:10;17.50;;;9.50;;
75512;SDS011;64090;49.770;18.760;2024-02-04T18:46:13;13.80;;;9.20;;
75512;SDS011;64090;49.770;18.760;2024-02-04T18:49:16;7.00;;;4.10;;
75512;SDS011;64090;49.770;18.760;2024-02-04T18:52:20;9.30;;;5.70;;
75512;SDS011;64090;49.770;18.760;2024-02-04T18:55:23;12.40;;;8.10;;
75512;SDS011;64090;49.770;18.760;2024-02-04T18:58:27;7.70;;;3.60;;